Latest Weather Observations for kunanyi / Mount Wellington

IDT60901

Issued at 3:51 pm EST Sunday 15 September 2019 (issued every 10 minutes, with the page automatically refreshed every 10 minutes)

About weather observations | Map of Hobart area stations | Latest observations for Hobart area | Other Formats
Station Details ID: 094087 Name: KUNANYI (MOUNT WELLINGTON PINNACLE) Lat: -42.90 Lon: 147.24 Height: 1260.47 m
Data from the previous 72 hours. | See also: Recent months at kunanyi / Mount Wellington
Date/Time
EST
Temp
°C
App
Temp
°C
Dew
Point
°C
Rel
Hum
%
Delta-T
°C
Wind Press
QNH
hPa
Press
MSL
hPa
Rain since
9am
mm
Dir  Spd
km/h
Gust
km/h
Spd
kts
Gust
kts
15/03:30pm 5.8 0.2 -3.0 53 3.4 NW 17 24 9 13 - - 0.0
15/03:00pm 6.3 -0.7 -3.3 50 3.7 WNW 24 35 13 19 - - 0.0
15/02:40pm 6.1 -1.9 -6.1 41 4.4 WNW 28 48 15 26 - - 0.0
15/02:30pm 6.8 0.8 -3.1 49 3.9 WNW 19 30 10 16 - - 0.0
15/02:00pm 6.3 -0.3 -3.1 51 3.7 WNW 22 35 12 19 - - 0.0
15/01:30pm 6.8 0.7 -2.4 52 3.7 WNW 20 32 11 17 - - 0.0
15/01:00pm 6.3 1.9 -2.6 53 3.5 WNW 11 17 6 9 - - 0.0
15/12:30pm 6.1 0.1 -2.7 53 3.5 W 19 33 10 18 - - 0.0
15/12:00pm 5.8 1.5 -1.6 59 3.0 W 11 28 6 15 - - 0.0
15/11:30am 5.5 0.0 -1.9 59 2.9 SW 17 28 9 15 - - 0.0
15/11:00am 4.8 -0.7 -2.3 60 2.8 SW 17 22 9 12 - - 0.0
15/10:30am 4.8 -0.8 -2.5 59 2.8 WSW 17 35 9 19 - - 0.0
15/10:00am 4.8 -1.3 -3.5 55 3.1 W 19 28 10 15 - - 0.0
15/09:50am 4.3 -4.5 -4.2 54 3.1 SW 33 54 18 29 - - 0.0
15/09:33am 3.8 -6.1 -3.9 57 2.9 SW 39 57 21 31 - - 0.0
15/09:30am 4.0 -6.5 -6.3 47 3.6 SW 41 57 22 31 - - 0.0
15/09:21am 3.8 -6.1 -7.3 44 3.8 SW 37 57 20 31 - - 0.0
15/09:15am 3.4 -6.1 -3.8 59 2.7 SW 37 52 20 28 - - 0.0
15/09:04am 3.3 -6.7 -4.9 55 2.9 WSW 39 65 21 35 - - 0.0
15/09:00am 3.5 -7.2 -4.7 55 3.0 WSW 43 57 23 31 - - 0.0
15/08:58am 3.4 -7.6 -5.0 54 3.0 WSW 44 63 24 34 - - 0.0
15/08:30am 3.1 -9.6 -6.8 48 3.6 W 52 67 28 36 - - 0.0
15/08:06am 3.1 -9.7 -8.2 43 3.9 W 52 72 28 39 - - 0.0
15/08:00am 2.8 -9.6 -8.2 44 3.8 W 50 67 27 36 - - 0.0
15/07:30am 3.0 -7.6 -7.5 46 3.7 WSW 41 65 22 35 - - 0.0
15/07:00am 3.1 -7.6 -4.6 57 2.8 WSW 43 63 23 34 - - 0.0
15/06:31am 3.5 -7.3 -0.3 76 1.5 WSW 46 67 25 36 - - 0.0
15/06:30am 3.5 -7.7 -0.7 74 1.7 WSW 48 67 26 36 - - 0.0
15/06:00am 4.0 -7.0 1.0 81 1.3 WSW 48 74 26 40 - - 0.0
15/05:30am 4.5 -6.5 2.8 89 0.8 WSW 50 74 27 40 - - 0.0
15/05:00am 4.8 -7.9 2.8 87 0.9 WSW 59 89 32 48 - - 0.0
15/04:30am 4.9 -7.4 3.1 88 0.8 WSW 57 91 31 49 - - 0.0
15/04:00am 5.3 -8.1 3.6 89 0.8 WSW 63 98 34 53 - - 0.0
15/03:30am 5.5 -9.6 3.7 88 0.8 WSW 72 107 39 58 - - 0.0
15/03:00am 6.0 -9.1 3.3 83 1.2 WSW 72 96 39 52 - - 0.0
15/02:30am 5.9 -8.8 3.7 86 1.0 WSW 70 100 38 54 - - 0.0
15/02:00am 7.2 -8.6 3.6 78 1.7 W 76 117 41 63 - - 0.0
15/01:47am 6.4 -8.1 3.7 83 1.2 W 69 100 37 54 - - 0.0
15/01:30am 5.8 -6.4 3.6 86 1.0 W 57 82 31 44 - - 0.0
15/01:00am 6.2 -8.2 4.2 87 0.9 W 69 95 37 51 - - 0.0
15/12:30am 5.0 -9.1 3.8 92 0.5 W 67 89 36 48 - - 0.0
15/12:06am 5.2 -11.3 3.9 91 0.6 W 80 119 43 64 - - 0.0
15/12:00am 5.0 -10.8 3.7 91 0.6 W 76 98 41 53 - - 0.0
 
Date/Time
EST
Temp
°C
App
Temp
°C
Dew
Point
°C
Rel
Hum
%
Delta-T
°C
Wind Press
QNH
hPa
Press
MSL
hPa
Rain since
9am
mm
Dir  Spd
km/h
Gust
km/h
Spd
kts
Gust
kts
14/11:30pm 4.9 -12.4 3.1 88 0.8 W 83 107 45 58 - - 0.0
14/11:00pm 3.7 -12.7 0.1 77 1.5 W 76 106 41 57 - - 0.0
14/10:55pm 3.4 -12.4 -1.2 72 1.8 WNW 72 106 39 57 - - 0.0
14/10:32pm 3.0 -12.2 -4.0 60 2.6 WNW 67 87 36 47 - - 0.0
14/10:30pm 3.1 -11.7 -3.7 61 2.5 WNW 65 83 35 45 - - 0.0
14/10:00pm 3.3 -12.6 -4.6 56 2.9 WNW 70 93 38 50 - - 0.0
14/09:30pm 3.8 -10.5 -6.2 48 3.5 WNW 61 82 33 44 - - 0.0
14/09:28pm 3.6 -10.3 -6.1 49 3.4 WNW 59 82 32 44 - - 0.0
14/09:18pm 4.0 -11.9 -6.6 46 3.7 WNW 69 102 37 55 - - 0.0
14/09:10pm 4.8 -12.9 -7.3 41 4.2 WNW 78 102 42 55 - - 0.0
14/09:00pm 4.6 -13.0 -6.6 44 3.9 WNW 78 102 42 55 - - 0.0
14/08:56pm 4.5 -12.7 -7.0 43 4.0 WNW 76 102 41 55 - - 0.0
14/08:30pm 4.8 -9.4 -5.3 48 3.7 W 61 83 33 45 - - 0.0
14/08:00pm 5.5 -7.9 -7.0 40 4.4 W 56 83 30 45 - - 0.0
14/07:48pm 5.5 -6.9 -4.6 48 3.8 WNW 52 70 28 38 - - 0.0
14/07:30pm 5.5 -6.7 -5.5 45 4.0 WNW 50 69 27 37 - - 0.0
14/07:11pm 5.1 -6.7 -6.1 44 4.0 WNW 48 69 26 37 - - 0.0
14/07:00pm 4.7 -7.4 -5.1 49 3.6 WNW 50 61 27 33 - - 0.0
14/06:30pm 4.8 -6.8 -4.2 52 3.3 WNW 48 61 26 33 - - 0.0
14/06:00pm 4.8 -7.5 -3.5 55 3.1 WNW 52 72 28 39 - - 0.0
14/05:59pm 4.9 -7.4 -3.6 54 3.2 WNW 52 72 28 39 - - 0.0
14/05:30pm 5.0 -6.0 -1.7 62 2.7 WNW 46 57 25 31 - - 0.0
14/05:00pm 5.7 -5.6 -1.2 61 2.8 WNW 48 61 26 33 - - 0.0
14/04:30pm 6.1 -5.3 -1.8 57 3.2 W 48 69 26 37 - - 0.0
14/04:23pm 6.5 -5.5 -4.3 46 4.1 W 50 69 27 37 - - 0.0
14/04:00pm 7.4 -3.3 -4.7 42 4.6 W 43 59 23 32 - - 0.0
14/03:55pm 7.4 -2.6 -5.0 41 4.7 WNW 39 59 21 32 - - 0.0
14/03:30pm 7.5 -0.6 -3.4 46 4.3 WNW 30 43 16 23 - - 0.0
14/03:00pm 7.6 0.6 -0.8 55 3.5 WNW 26 33 14 18 - - 0.0
14/02:30pm 8.0 1.9 -2.3 48 4.2 W 20 37 11 20 - - 0.0
14/02:00pm 8.2 1.1 -1.3 51 3.9 WSW 26 39 14 21 - - 0.0
14/01:30pm 7.1 -1.0 -0.6 58 3.2 WSW 32 46 17 25 - - 0.0
14/01:00pm 7.8 0.9 -2.8 47 4.2 WSW 24 32 13 17 - - 0.0
14/12:30pm 6.7 0.8 -1.0 58 3.2 WSW 20 30 11 16 - - 0.0
14/12:00pm 5.7 1.4 -1.4 60 2.9 SW 11 19 6 10 - - 0.0
14/11:30am 6.0 0.7 -0.9 61 2.8 SW 17 22 9 12 - - 0.0
14/11:00am 4.7 -1.0 -0.7 68 2.2 SW 19 26 10 14 - - 0.0
14/10:30am 2.9 -3.4 -0.7 77 1.4 WSW 22 30 12 16 - - 0.0
14/10:00am 2.5 -3.2 0.7 88 0.7 SW 20 30 11 16 - - 0.0
14/09:30am 1.5 -5.8 0.3 92 0.5 SW 28 37 15 20 - - 0.0
14/09:00am 0.8 -8.2 0.1 95 0.3 SW 37 44 20 24 - - 1.4
14/08:30am 0.3 -10.1 -0.3 96 0.2 SW 44 59 24 32 - - 1.4
14/08:00am -0.1 -12.9 -1.2 92 0.4 SW 56 72 30 39 - - 1.4
14/07:30am -0.3 -13.2 -0.9 96 0.2 SW 57 70 31 38 - - 1.4
14/07:16am -0.2 -13.1 -0.5 98 0.1 WSW 57 78 31 42 - - 1.4
14/07:00am -0.5 -14.2 -0.8 98 0.1 WSW 61 76 33 41 - - 1.4
14/06:30am -0.3 -12.6 -0.3 100 0.0 WSW 54 67 29 36 - - 1.4
14/06:00am -0.1 -12.9 -0.1 100 0.0 WSW 57 69 31 37 - - 1.4
14/05:48am 0.0 -11.9 0.0 100 0.0 WSW 52 76 28 41 - - 1.4
14/05:30am 0.1 -10.2 0.1 100 0.0 WSW 44 54 24 29 - - 1.4
14/05:00am 0.1 -10.6 0.1 100 0.0 WSW 46 65 25 35 - - 1.4
14/04:30am -0.1 -11.6 -0.1 100 0.0 WSW 50 65 27 35 - - 1.4
14/04:00am -0.1 -11.2 -0.1 100 0.0 WSW 48 63 26 34 - - 1.4
14/03:33am -0.3 -10.7 -0.3 100 0.0 WSW 44 63 24 34 - - 1.4
14/03:30am -0.3 -10.7 -0.3 100 0.0 WSW 44 56 24 30 - - 1.4
14/03:14am -0.4 -11.6 -0.4 100 0.0 WSW 48 69 26 37 - - 1.4
14/03:00am -0.5 -11.7 -0.5 100 0.0 WSW 48 65 26 35 - - 1.4
14/02:31am -0.6 -13.5 -0.7 99 0.0 WSW 57 78 31 42 - - 1.4
14/02:30am -0.6 -13.9 -0.7 99 0.0 WSW 59 78 32 42 - - 1.4
14/02:17am -0.4 -13.1 -0.5 99 0.0 WSW 56 78 30 42 - - 1.4
14/02:00am -0.5 -12.1 -0.6 99 0.0 WSW 50 65 27 35 - - 1.4
14/01:30am -0.8 -13.8 -1.1 98 0.1 WSW 57 72 31 39 - - 1.4
14/01:09am -0.7 -16.0 -1.3 96 0.2 WSW 69 87 37 47 - - 1.4
14/01:00am -0.8 -17.0 -1.2 97 0.1 WSW 74 87 40 47 - - 1.4
14/12:30am -0.9 -17.9 -1.3 97 0.1 WSW 78 89 42 48 - - 1.4
14/12:28am -1.0 -18.0 -1.4 97 0.1 WSW 78 96 42 52 - - 1.4
14/12:00am -0.8 -19.1 -1.2 97 0.1 WSW 85 102 46 55 - - 1.4
 
Date/Time
EST
Temp
°C
App
Temp
°C
Dew
Point
°C
Rel
Hum
%
Delta-T
°C
Wind Press
QNH
hPa
Press
MSL
hPa
Rain since
9am
mm
Dir  Spd
km/h
Gust
km/h
Spd
kts
Gust
kts
13/11:30pm -0.8 -18.7 -2.2 90 0.5 WSW 82 93 44 50 - - 1.4
13/11:15pm -1.0 -18.9 -2.1 92 0.4 WSW 82 102 44 55 - - 1.4
13/11:00pm -0.8 -18.8 -1.6 94 0.3 WSW 83 102 45 55 - - 1.4
13/10:58pm -0.7 -18.5 -1.4 95 0.2 WSW 82 102 44 55 - - 1.4
13/10:30pm -0.6 -18.4 -1.4 94 0.3 WSW 82 96 44 52 - - 1.4
13/10:22pm -0.7 -18.5 -1.7 93 0.3 WSW 82 100 44 54 - - 1.4
13/10:00pm -0.5 -17.4 -0.8 98 0.1 WSW 78 91 42 49 - - 1.4
13/09:30pm -0.3 -16.5 -1.1 94 0.3 WSW 74 95 40 51 - - 1.4
13/09:04pm -0.2 -16.4 -1.2 93 0.4 WSW 74 93 40 50 - - 1.4
13/09:00pm -0.2 -16.5 -1.5 91 0.5 WSW 74 89 40 48 - - 1.4
13/08:42pm 0.0 -16.2 -0.8 94 0.3 WSW 74 95 40 51 - - 1.4
13/08:30pm 0.0 -15.2 -0.7 95 0.3 WSW 69 83 37 45 - - 1.4
13/08:03pm 0.0 -14.8 -0.3 98 0.1 WSW 67 85 36 46 - - 1.4
13/08:00pm 0.1 -15.0 -0.2 98 0.1 WSW 69 85 37 46 - - 1.4
13/07:30pm 0.3 -16.1 0.2 99 0.0 WSW 76 98 41 53 - - 1.4
13/07:12pm 0.5 -15.1 0.4 99 0.0 WSW 72 93 39 50 - - 1.4
13/07:00pm 0.5 -14.5 0.4 99 0.0 WSW 69 85 37 46 - - 1.4
13/06:52pm 0.4 -11.8 0.3 99 0.0 WSW 54 74 29 40 - - 1.4
13/06:46pm 0.1 -10.2 0.0 99 0.0 SW 44 69 24 37 - - 1.4
13/06:43pm 0.4 -10.3 0.3 99 0.0 SW 46 74 25 40 - - 1.2
13/06:40pm 1.2 -10.9 1.1 99 0.0 WSW 54 93 29 50 - - 1.2
13/06:30pm 1.5 -12.2 1.5 100 0.0 WSW 63 83 34 45 - - 1.0
13/06:26pm 1.7 -12.4 1.7 100 0.0 WSW 65 83 35 45 - - 1.0
13/06:13pm 1.7 -11.2 1.7 100 0.0 WSW 59 83 32 45 - - 1.0
13/06:02pm 1.8 -9.0 1.8 100 0.0 WSW 48 70 26 38 - - 1.0
13/06:00pm 1.8 -9.0 1.8 100 0.0 WSW 48 63 26 34 - - 1.0
13/05:48pm 1.6 -8.3 1.5 99 0.0 WSW 43 63 23 34 - - 1.0
13/05:30pm 0.5 -8.5 0.2 98 0.1 WSW 37 50 20 27 - - 0.8
13/05:13pm 1.9 -9.3 1.6 98 0.1 WSW 50 80 27 43 - - 0.0
13/05:00pm 2.0 -11.7 1.4 96 0.2 WSW 63 96 34 52 - - 0.0
13/04:54pm 2.2 -13.6 1.6 96 0.3 WSW 74 109 40 59 - - 0.0
13/04:30pm 2.7 -13.9 1.4 91 0.5 W 78 115 42 62 - - 0.0
13/04:28pm 2.7 -13.5 1.5 92 0.5 W 76 115 41 62 - - 0.0
13/04:00pm 3.1 -10.6 1.5 89 0.7 WNW 63 91 34 49 - - 0.0
13/03:30pm 2.8 -10.6 0.9 87 0.8 WNW 61 82 33 44 - - 0.0
13/03:00pm 3.0 -9.5 0.6 84 1.0 WNW 56 76 30 41 - - 0.0
13/02:30pm 4.1 -8.5 0.4 77 1.5 WNW 56 74 30 40 - - 0.0
13/02:14pm 4.3 -7.5 0.3 75 1.7 WNW 52 87 28 47 - - 0.0
13/02:11pm 3.2 -8.0 -0.4 77 1.4 WNW 48 67 26 36 - - 0.0
13/02:00pm 2.0 -8.3 0.1 87 0.8 NW 44 57 24 31 - - 0.0
13/01:30pm 0.6 -9.2 -0.4 93 0.4 WNW 41 52 22 28 - - 0.0
13/01:05pm 1.0 -8.6 -1.4 84 0.9 W 39 61 21 33 - - 0.0
13/01:00pm 1.1 -8.9 -1.5 83 1.0 W 41 52 22 28 - - 0.0
13/12:46pm 1.8 -10.3 -2.0 76 1.4 W 52 76 28 41 - - 0.0
13/12:34pm 1.2 -12.6 -1.5 82 1.0 W 61 80 33 43 - - 0.0
13/12:30pm 0.9 -12.9 -1.3 85 0.8 W 61 76 33 41 - - 0.0
13/12:00pm 1.8 -10.9 -3.3 69 2.0 W 54 69 29 37 - - 0.0
13/11:30am 4.2 -7.0 -7.2 43 3.9 W 44 61 24 33 - - 0.0
13/11:24am 4.0 -7.0 -7.4 43 3.9 W 43 61 23 33 - - 0.0
13/11:00am 3.9 -6.5 -5.0 52 3.2 WNW 41 54 22 29 - - 0.0
13/10:38am 4.5 -5.3 -7.0 43 4.0 W 37 56 20 30 - - 0.0
13/10:30am 4.8 -5.9 -8.6 37 4.5 W 41 56 22 30 - - 0.0
13/10:00am 5.2 -4.8 -8.6 36 4.6 W 37 48 20 26 - - 0.0
13/09:30am 6.8 -3.8 -11.3 26 5.8 W 39 50 21 27 - - 0.0
13/09:00am 5.2 -5.7 -11.4 29 5.2 W 41 52 22 28 - - 0.0
13/08:30am 1.3 -5.9 -1.9 79 1.2 W 26 33 14 18 - - 0.0
13/08:00am 0.8 -5.7 -2.4 79 1.2 WSW 22 28 12 15 - - 0.0
13/07:30am 1.9 -4.4 -4.4 63 2.4 WSW 20 28 11 15 - - 0.0
13/07:00am 2.6 -5.4 -5.3 56 2.9 WSW 28 35 15 19 - - 0.0
13/06:30am 2.9 -4.8 -6.5 50 3.4 WSW 26 32 14 17 - - 0.0
13/06:00am 2.4 -5.9 -5.2 57 2.8 WSW 30 43 16 23 - - 0.0
13/05:30am 1.4 -7.4 -4.6 64 2.2 WSW 33 41 18 22 - - 0.0
13/05:00am -1.2 -7.3 -2.5 91 0.4 SW 20 28 11 15 - - 0.0
13/04:30am -1.2 -8.1 -2.6 90 0.5 SW 24 33 13 18 - - 0.0
13/04:00am -1.3 -7.9 -3.0 88 0.5 WSW 22 37 12 20 - - 0.0
13/03:30am -1.1 -8.8 -3.0 87 0.6 SW 28 35 15 19 - - 0.0
13/03:00am -1.5 -10.4 -2.2 95 0.2 SW 35 43 19 23 - - 0.0
13/02:49am -1.6 -10.9 -2.2 96 0.1 SW 37 44 20 24 - - 0.0
13/02:36am -1.4 -9.7 -2.0 96 0.2 SSW 32 37 17 20 - - 0.0
13/02:30am -1.5 -10.8 -2.1 96 0.1 SW 37 46 20 25 - - 0.0
13/02:00am -1.4 -9.9 -2.0 96 0.2 SW 33 39 18 21 - - 0.0
13/01:30am -1.3 -12.7 -2.0 95 0.2 SW 48 57 26 31 - - 0.0
13/01:00am -1.2 -11.8 -1.9 95 0.2 WSW 44 57 24 31 - - 0.0
13/12:42am -1.1 -12.5 -2.1 93 0.3 SW 48 67 26 36 - - 0.0
13/12:30am -1.1 -14.2 -2.1 93 0.3 SW 57 74 31 40 - - 0.0
13/12:00am -0.9 -12.2 -1.3 97 0.1 WSW 48 63 26 34 - - 0.0
 
Date/Time
EST
Temp
°C
App
Temp
°C
Dew
Point
°C
Rel
Hum
%
Delta-T
°C
Wind Press
QNH
hPa
Press
MSL
hPa
Rain since
9am
mm
Dir  Spd
km/h
Gust
km/h
Spd
kts
Gust
kts
12/11:41pm -0.9 -13.3 -1.2 98 0.1 SW 54 74 29 40 - - 0.0
12/11:30pm -1.0 -13.8 -1.4 97 0.1 SW 56 67 30 36 - - 0.0
12/11:00pm -0.8 -14.2 -1.4 96 0.2 WSW 59 74 32 40 - - 0.0
12/10:33pm -0.7 -13.5 -1.3 96 0.2 WSW 56 76 30 41 - - 0.0
12/10:30pm -0.7 -13.7 -1.3 96 0.2 WSW 57 76 31 41 - - 0.0
12/10:00pm -0.6 -15.1 -1.3 95 0.2 WSW 65 83 35 45 - - 0.0
12/09:42pm -0.7 -15.3 -1.7 93 0.3 WSW 65 85 35 46 - - 0.0
12/09:30pm -0.7 -16.0 -1.8 92 0.4 WSW 69 87 37 47 - - 0.0
12/09:19pm -0.9 -15.5 -1.6 95 0.2 WSW 65 83 35 45 - - 0.0
12/09:00pm -0.8 -16.1 -1.8 93 0.3 WSW 69 83 37 45 - - 0.0
12/08:30pm -0.9 -16.7 -1.0 99 0.0 WSW 72 87 39 47 - - 0.0
12/08:00pm -0.6 -17.5 -0.7 99 0.0 WSW 78 96 42 52 - - 0.0
12/07:35pm -0.5 -15.7 -0.6 99 0.0 WSW 69 87 37 47 - - 0.0
12/07:30pm -0.5 -16.6 -0.6 99 0.0 WSW 74 87 40 47 - - 0.0
12/07:00pm -0.3 -15.1 -0.6 98 0.1 WSW 67 87 36 47 - - 0.0
12/06:30pm -0.3 -17.2 -1.0 95 0.3 WSW 78 98 42 53 - - 0.0
12/06:00pm -0.2 -18.1 -2.1 87 0.7 WSW 82 98 44 53 - - 0.0
12/05:30pm -0.2 -18.2 -1.9 88 0.6 WSW 83 102 45 55 - - 0.0
12/05:06pm -0.3 -18.1 -1.4 92 0.4 WSW 82 102 44 55 - - 0.0
12/05:00pm -0.2 -18.2 -1.6 90 0.5 WSW 83 100 45 54 - - 0.0
12/04:38pm 0.3 -16.9 -2.6 81 1.1 WSW 78 98 42 53 - - 0.0
12/04:30pm 0.5 -16.6 -2.2 82 1.0 WSW 78 95 42 51 - - 0.0
12/04:01pm 0.8 -14.7 -1.6 84 1.0 WSW 70 91 38 49 - - 0.0
12/04:00pm 0.9 -14.4 -1.5 84 1.0 WSW 69 85 37 46 - - 0.0

Latest Capital City Observations: Canberra | Sydney | Melbourne | Brisbane | Adelaide | Perth | Hobart | Darwin

Other formats

Comma delimited format used in spreadsheet applications
http://www.bom.gov.au/fwo/IDT60901/IDT60901.95979.axf

JavaScript Object Notation format (JSON) in row-major order
http://www.bom.gov.au/fwo/IDT60901/IDT60901.95979.json

Data quality

Most of these data are generated automatically and are frequently updated. Quality checks on data are not normally performed. It is possible for incorrect values to appear. Refer to information at About Latest Weather Observations and please check the disclaimer before using these data.